Time;durP1;ratioP1;P1;durP2;ratioP2;P2;SDS_P1;SDS_P2;PMS_P1;PMS_P2;Temp;Humidity;BMP_temperature;BMP_pressure;BME280_temperature;BME280_humidity;BME280_pressure;Samples;Min_cycle;Max_cycle;Signal;HPM_P1;HPM_P2
2023/08/10 00:00:33;;;;;;;6.37;3.70;;;;;;;18.46;100.00;96588.88;5054339;28;20074;-81
2023/08/10 00:02:59;;;;;;;7.87;3.43;;;;;;;18.06;100.00;96585.25;5056090;28;20024;-81
2023/08/10 00:05:25;;;;;;;6.57;3.60;;;;;;;18.30;100.00;96583.91;5056108;28;20517;-81
2023/08/10 00:07:50;;;;;;;7.97;5.30;;;;;;;18.46;100.00;96588.06;5055939;28;20454;-81
2023/08/10 00:10:16;;;;;;;7.30;4.10;;;;;;;18.44;100.00;96582.13;5054276;28;20039;-80
2023/08/10 00:12:43;;;;;;;6.57;4.20;;;;;;;18.47;100.00;96587.84;5067456;28;20463;-81
2023/08/10 00:15:16;;;;;;;8.07;4.23;;;;;;;18.69;100.00;96583.22;5055743;28;20036;-81
2023/08/10 00:17:42;;;;;;;8.47;4.03;;;;;;;18.63;100.00;96581.34;5055376;28;20021;-80
2023/08/10 00:20:10;;;;;;;8.67;4.07;;;;;;;18.82;100.00;96580.63;5067115;28;20403;-80
2023/08/10 00:22:37;;;;;;;6.20;3.87;;;;;;;18.73;100.00;96575.66;5052143;28;20451;-80
2023/08/10 00:25:04;;;;;;;8.03;4.00;;;;;;;18.74;100.00;96579.97;5072079;28;20096;-80
2023/08/10 00:27:30;;;;;;;5.50;3.63;;;;;;;18.74;100.00;96578.13;5052420;28;20048;-81
2023/08/10 00:29:56;;;;;;;6.67;4.30;;;;;;;18.57;100.00;96585.63;5076803;28;20434;-80
2023/08/10 00:32:22;;;;;;;7.80;4.20;;;;;;;18.18;100.00;96574.88;5072376;28;20032;-81
2023/08/10 00:34:47;;;;;;;7.87;4.30;;;;;;;18.17;100.00;96581.19;5072049;28;20024;-80
2023/08/10 00:37:14;;;;;;;8.90;4.80;;;;;;;17.83;100.00;96574.88;5054840;28;20538;-81
2023/08/10 00:39:40;;;;;;;7.13;3.97;;;;;;;18.23;100.00;96583.06;5052099;28;20047;-80
2023/08/10 00:42:06;;;;;;;7.73;4.30;;;;;;;18.51;100.00;96582.94;5071201;28;20471;-81
2023/08/10 00:44:32;;;;;;;7.13;3.80;;;;;;;18.38;100.00;96573.91;5071846;28;20020;-80
2023/08/10 00:46:59;;;;;;;6.47;3.93;;;;;;;18.46;100.00;96580.91;5054436;28;20387;-80
2023/08/10 00:49:25;;;;;;;6.00;3.93;;;;;;;18.45;100.00;96581.94;5071508;28;20495;-80
2023/08/10 00:51:51;;;;;;;7.73;4.20;;;;;;;18.32;100.00;96584.53;5055102;28;20047;-81
2023/08/10 00:54:17;;;;;;;7.90;4.37;;;;;;;18.68;100.00;96583.41;5071605;28;20475;-80
2023/08/10 00:56:42;;;;;;;9.33;4.00;;;;;;;18.55;100.00;96585.03;5050873;28;20056;-80
2023/08/10 00:59:08;;;;;;;8.60;4.33;;;;;;;18.47;100.00;96584.38;5068787;28;20035;-80
2023/08/10 01:01:34;;;;;;;6.90;4.50;;;;;;;18.60;100.00;96581.75;5055796;28;20021;-80
2023/08/10 01:04:00;;;;;;;6.73;3.80;;;;;;;18.47;100.00;96587.03;5068842;28;20748;-81
2023/08/10 01:06:52;;;;;;;6.43;3.43;;;;;;;18.55;100.00;96585.03;5054588;28;20031;-81
2023/08/10 01:09:49;;;;;;;6.57;3.60;;;;;;;18.62;100.00;96582.38;5054525;28;20111;-80
2023/08/10 01:12:25;;;;;;;7.33;3.47;;;;;;;18.54;100.00;96588.72;5044222;28;20040;-80
2023/08/10 01:14:59;;;;;;;7.83;3.67;;;;;;;18.26;100.00;96594.13;5071140;28;20021;-80
2023/08/10 01:17:29;;;;;;;5.93;3.70;;;;;;;18.14;100.00;96593.91;5053259;28;20504;-80
2023/08/10 01:19:59;;;;;;;5.17;3.57;;;;;;;18.36;100.00;96589.25;5066842;28;20482;-80
2023/08/10 01:23:09;;;;;;;8.10;3.80;;;;;;;18.14;100.00;96588.56;5067049;28;20488;-80
2023/08/10 01:25:35;;;;;;;6.30;3.60;;;;;;;18.31;100.00;96597.03;5062792;28;20028;-80
2023/08/10 01:28:02;;;;;;;18.73;3.70;;;;;;;17.95;100.00;96596.47;5052405;28;20402;-81
2023/08/10 01:30:28;;;;;;;6.43;3.47;;;;;;;17.80;100.00;96601.88;5069499;28;20054;-80
2023/08/10 01:32:54;;;;;;;7.53;3.30;;;;;;;17.84;100.00;96603.97;5054242;28;20474;-81
2023/08/10 01:35:20;;;;;;;6.83;3.20;;;;;;;18.02;100.00;96590.13;5067999;28;20028;-80
2023/08/10 01:37:45;;;;;;;6.43;3.00;;;;;;;18.25;100.00;96597.00;5070717;28;20019;-80
2023/08/10 01:40:13;;;;;;;6.63;3.37;;;;;;;18.25;100.00;96599.66;5052336;28;20056;-80
2023/08/10 01:42:43;;;;;;;8.53;2.90;;;;;;;18.42;100.00;96595.63;5071087;28;20059;-80
2023/08/10 01:45:09;;;;;;;5.23;2.73;;;;;;;18.42;100.00;96600.97;5054084;28;20074;-80
2023/08/10 01:48:00;;;;;;;5.30;2.90;;;;;;;18.65;100.00;96599.81;5054080;28;20020;-80
2023/08/10 01:50:29;;;;;;;5.67;3.03;;;;;;;18.56;100.00;96599.97;5054229;28;20024;-81
2023/08/10 01:52:59;;;;;;;4.47;2.70;;;;;;;18.55;100.00;96605.53;5048815;28;20070;-81
2023/08/10 01:55:25;;;;;;;5.20;3.10;;;;;;;18.63;100.00;96609.84;5046059;28;20502;-80
2023/08/10 01:57:51;;;;;;;7.03;3.17;;;;;;;18.43;100.00;96607.09;5053965;28;20044;-80
2023/08/10 02:00:17;;;;;;;6.70;3.33;;;;;;;18.36;100.00;96615.06;5070425;28;20020;-81
2023/08/10 02:02:42;;;;;;;5.47;2.70;;;;;;;18.39;100.00;96612.00;5070889;28;20047;-80
2023/08/10 02:05:20;;;;;;;6.30;3.00;;;;;;;18.04;100.00;96604.09;5054504;28;20020;-80
2023/08/10 02:07:49;;;;;;;5.73;2.93;;;;;;;17.80;100.00;96608.03;5051163;28;20100;-80
2023/08/10 02:10:15;;;;;;;6.83;3.00;;;;;;;17.61;100.00;96604.19;5068893;28;20025;-80
2023/08/10 02:12:41;;;;;;;6.07;2.80;;;;;;;17.71;100.00;96608.38;5061919;28;20026;-80
2023/08/10 02:15:07;;;;;;;4.97;2.77;;;;;;;17.29;100.00;96615.41;5070713;28;20090;-80
2023/08/10 02:17:35;;;;;;;9.10;3.37;;;;;;;17.45;100.00;96599.16;5053755;28;20743;-80
2023/08/10 02:20:12;;;;;;;7.10;3.67;;;;;;;17.35;100.00;96599.50;5070380;28;20025;-80
2023/08/10 02:22:52;;;;;;;6.50;3.27;;;;;;;17.50;100.00;96607.38;5059197;28;20028;-80
2023/08/10 02:25:19;;;;;;;6.67;3.60;;;;;;;17.35;100.00;96609.31;5051725;28;20047;-80
2023/08/10 02:27:46;;;;;;;8.27;3.80;;;;;;;17.48;100.00;96608.59;5040975;28;20025;-81
2023/08/10 02:30:14;;;;;;;6.87;3.70;;;;;;;17.59;100.00;96600.91;5070156;28;20033;-80
2023/08/10 02:32:39;;;;;;;9.57;3.63;;;;;;;17.64;100.00;96600.34;5070255;28;20494;-81
2023/08/10 02:35:15;;;;;;;10.40;4.40;;;;;;;17.34;100.00;96602.38;5049291;28;20028;-80
2023/08/10 02:37:41;;;;;;;6.47;4.17;;;;;;;17.48;100.00;96608.59;5063879;28;20030;-80
2023/08/10 02:40:07;;;;;;;7.73;4.33;;;;;;;17.58;100.00;96604.59;5053498;28;20036;-80
2023/08/10 02:42:33;;;;;;;7.17;4.63;;;;;;;17.81;100.00;96606.19;5066717;28;20075;-80
2023/08/10 02:44:59;;;;;;;7.80;5.33;;;;;;;17.96;100.00;96608.72;5054180;28;20033;-80
2023/08/10 02:47:25;;;;;;;9.60;5.33;;;;;;;17.76;100.00;96611.25;5053482;28;20169;-81
2023/08/10 02:49:51;;;;;;;10.73;4.50;;;;;;;17.46;100.00;96608.78;5048490;28;20045;-81
2023/08/10 02:52:16;;;;;;;6.87;4.93;;;;;;;17.57;100.00;96602.09;5071855;28;20056;-80
2023/08/10 02:54:42;;;;;;;10.63;4.87;;;;;;;17.85;100.00;96616.25;5047842;28;20063;-80
2023/08/10 02:57:08;;;;;;;6.87;4.77;;;;;;;18.06;100.00;96607.34;5035649;28;21773;-80
2023/08/10 02:59:34;;;;;;;7.43;4.27;;;;;;;18.09;100.00;96611.47;5048950;28;20044;-81
2023/08/10 03:02:00;;;;;;;7.13;4.80;;;;;;;18.05;100.00;96611.03;5067653;28;20035;-80
2023/08/10 03:04:25;;;;;;;8.97;4.87;;;;;;;17.36;100.00;96630.38;5049259;28;20025;-80
2023/08/10 03:06:51;;;;;;;9.13;4.97;;;;;;;17.75;100.00;96622.91;5052449;28;20017;-80
2023/08/10 03:09:23;;;;;;;6.13;4.43;;;;;;;17.64;100.00;96618.97;5048178;28;20029;-80
2023/08/10 03:11:50;;;;;;;10.77;5.60;;;;;;;18.09;100.00;96616.78;5067987;28;20664;-80
2023/08/10 03:14:16;;;;;;;7.27;4.67;;;;;;;18.07;100.00;96614.31;5055814;28;20033;-80
2023/08/10 03:16:42;;;;;;;9.40;5.83;;;;;;;17.76;100.00;96616.56;5074510;28;20479;-80
2023/08/10 03:19:07;;;;;;;8.63;5.17;;;;;;;17.77;100.00;96615.56;5085115;28;20043;-80
2023/08/10 03:21:33;;;;;;;7.20;4.23;;;;;;;17.79;100.00;96610.88;5069107;28;20056;-80
2023/08/10 03:23:59;;;;;;;8.70;4.87;;;;;;;17.64;100.00;96622.44;5072265;28;20032;-79
2023/08/10 03:26:24;;;;;;;8.67;4.93;;;;;;;17.74;100.00;96621.25;5055799;28;20382;-79
2023/08/10 03:28:50;;;;;;;8.93;4.57;;;;;;;17.56;100.00;96622.56;5058157;28;20028;-79
2023/08/10 03:31:16;;;;;;;8.33;4.47;;;;;;;17.31;100.00;96624.84;5073139;28;20078;-79
2023/08/10 03:33:43;;;;;;;11.00;4.87;;;;;;;17.14;100.00;96620.81;5074702;28;20131;-79
2023/08/10 03:36:08;;;;;;;8.33;5.07;;;;;;;17.12;100.00;96620.97;5056969;28;20529;-79
2023/08/10 03:38:34;;;;;;;9.83;5.30;;;;;;;17.00;100.00;96622.53;5053626;28;20070;-79
2023/08/10 03:41:00;;;;;;;7.63;5.03;;;;;;;17.04;100.00;96622.97;5073669;28;20070;-79
2023/08/10 03:43:26;;;;;;;10.30;6.27;;;;;;;16.97;100.00;96625.56;5062745;28;20020;-79
2023/08/10 03:45:52;;;;;;;8.73;5.07;;;;;;;17.04;100.00;96631.75;5056675;28;20020;-79
2023/08/10 03:48:18;;;;;;;10.60;5.73;;;;;;;17.05;100.00;96628.06;5055831;28;20047;-79
2023/08/10 03:50:43;;;;;;;9.57;5.47;;;;;;;17.10;100.00;96631.00;5055953;28;20039;-79
2023/08/10 03:53:09;;;;;;;9.37;5.17;;;;;;;17.09;100.00;96633.81;5073163;28;20082;-79
2023/08/10 03:55:34;;;;;;;7.37;4.73;;;;;;;17.00;100.00;96635.81;5056613;28;20021;-80
2023/08/10 03:58:03;;;;;;;6.97;4.70;;;;;;;16.96;100.00;96631.84;5070343;28;20021;-79
2023/08/10 04:00:29;;;;;;;7.03;5.07;;;;;;;16.96;100.00;96632.69;5055635;28;20031;-80
2023/08/10 04:02:55;;;;;;;6.43;3.90;;;;;;;16.79;100.00;96623.31;5072616;28;20421;-80
2023/08/10 04:05:20;;;;;;;7.70;4.80;;;;;;;16.84;100.00;96626.25;5059981;28;20020;-80
2023/08/10 04:07:47;;;;;;;7.60;4.50;;;;;;;16.77;100.00;96628.00;5052160;28;20009;-80
2023/08/10 04:10:13;;;;;;;8.40;4.77;;;;;;;16.67;100.00;96636.25;5066276;28;20021;-80
2023/08/10 04:12:39;;;;;;;7.43;4.60;;;;;;;16.79;100.00;96625.16;5064502;28;20028;-80
2023/08/10 04:15:08;;;;;;;6.90;4.40;;;;;;;16.79;100.00;96625.97;5072958;28;20017;-80
2023/08/10 04:17:37;;;;;;;7.80;4.07;;;;;;;16.63;100.00;96631.47;5054609;28;20045;-80
2023/08/10 04:20:09;;;;;;;9.23;3.93;;;;;;;16.48;100.00;96634.19;5052989;28;20025;-80
2023/08/10 04:22:36;;;;;;;9.23;4.43;;;;;;;16.30;100.00;96634.59;5055960;28;20077;-79
2023/08/10 04:25:02;;;;;;;9.57;4.67;;;;;;;16.60;100.00;96631.84;5048574;28;20028;-80
2023/08/10 04:27:29;;;;;;;7.60;4.33;;;;;;;16.84;100.00;96638.69;5059701;28;20020;-79
2023/08/10 04:29:54;;;;;;;6.47;3.73;;;;;;;16.69;100.00;96646.66;5059133;28;20062;-80
2023/08/10 04:32:20;;;;;;;6.33;3.43;;;;;;;16.66;100.00;96637.22;5072509;28;20516;-79
2023/08/10 04:34:45;;;;;;;6.23;4.23;;;;;;;17.07;100.00;96644.66;5071987;28;20035;-80
2023/08/10 04:37:12;;;;;;;8.10;4.57;;;;;;;17.28;100.00;96629.72;5071839;28;20026;-80
2023/08/10 04:39:38;;;;;;;6.97;4.37;;;;;;;17.36;100.00;96626.91;5055286;28;20024;-80
2023/08/10 04:42:03;;;;;;;8.83;4.47;;;;;;;17.22;100.00;96641.09;5049525;28;20035;-80
2023/08/10 04:44:29;;;;;;;8.10;3.87;;;;;;;17.25;100.00;96635.41;5057681;28;20059;-80
2023/08/10 04:46:54;;;;;;;7.57;4.10;;;;;;;17.33;100.00;96629.94;5067268;28;20031;-80
2023/08/10 04:49:20;;;;;;;8.33;4.00;;;;;;;17.19;100.00;96632.50;5063567;28;20032;-80
2023/08/10 04:51:46;;;;;;;7.10;4.13;;;;;;;17.22;100.00;96639.25;5054923;28;20047;-80
2023/08/10 04:54:12;;;;;;;6.07;3.93;;;;;;;16.99;100.00;96643.94;5053466;28;20043;-80
2023/08/10 04:56:38;;;;;;;8.50;5.00;;;;;;;17.23;100.00;96648.88;5064371;28;20021;-80
2023/08/10 04:59:04;;;;;;;6.07;3.97;;;;;;;17.31;100.00;96651.41;5069687;28;20028;-80
2023/08/10 05:01:30;;;;;;;8.00;4.20;;;;;;;17.62;100.00;96653.72;5051272;28;20043;-80
2023/08/10 05:03:56;;;;;;;5.43;3.93;;;;;;;17.82;100.00;96648.56;5051296;28;20024;-80
2023/08/10 05:06:22;;;;;;;9.70;4.27;;;;;;;17.85;100.00;96647.34;5067151;28;20025;-80
2023/08/10 05:08:47;;;;;;;6.50;4.20;;;;;;;17.32;100.00;96654.88;5051485;28;20395;-80
2023/08/10 05:11:13;;;;;;;8.47;3.73;;;;;;;17.21;100.00;96645.59;5071178;28;20028;-80
2023/08/10 05:13:39;;;;;;;7.33;3.47;;;;;;;17.49;100.00;96658.09;5052280;28;20111;-80
2023/08/10 05:16:05;;;;;;;9.50;3.73;;;;;;;17.88;100.00;96655.78;5049748;28;20107;-80
2023/08/10 05:18:30;;;;;;;5.10;3.47;;;;;;;17.86;100.00;96656.97;5055015;28;20035;-80
2023/08/10 05:21:02;;;;;;;7.37;4.07;;;;;;;18.68;100.00;96658.84;5071536;28;20115;-80
2023/08/10 05:23:28;;;;;;;6.73;3.53;;;;;;;19.38;100.00;96653.25;5044951;28;20700;-80
2023/08/10 05:25:53;;;;;;;7.17;3.43;;;;;;;19.55;100.00;96658.00;5061922;28;20024;-80
2023/08/10 05:28:19;;;;;;;5.77;3.43;;;;;;;19.82;100.00;96660.69;5070852;28;20028;-80
2023/08/10 05:30:44;;;;;;;7.83;3.63;;;;;;;20.21;100.00;96651.75;5069626;28;20036;-80
2023/08/10 05:33:10;;;;;;;5.43;2.90;;;;;;;20.44;100.00;96659.28;5068017;28;20044;-80
2023/08/10 05:35:36;;;;;;;3.70;2.53;;;;;;;20.94;100.00;96667.53;5054552;28;20153;-80
2023/08/10 05:38:02;;;;;;;3.43;2.57;;;;;;;21.42;100.00;96659.03;5069478;28;20028;-80
2023/08/10 05:40:28;;;;;;;5.33;2.23;;;;;;;21.15;100.00;96660.22;5047476;28;20036;-81
2023/08/10 05:42:53;;;;;;;5.67;2.30;;;;;;;20.55;100.00;96667.72;5051415;28;20021;-80
2023/08/10 05:45:19;;;;;;;3.90;2.03;;;;;;;20.75;100.00;96668.44;5067651;28;20413;-80
2023/08/10 05:47:50;;;;;;;5.37;2.27;;;;;;;20.50;100.00;96668.31;5056928;28;20027;-80
2023/08/10 05:50:16;;;;;;;5.77;2.00;;;;;;;20.39;100.00;96671.66;5071277;28;20029;-80
2023/08/10 05:52:43;;;;;;;5.80;2.40;;;;;;;20.40;100.00;96668.78;5053468;28;20025;-80
2023/08/10 05:55:09;;;;;;;5.20;2.10;;;;;;;20.19;100.00;96669.03;5049627;28;20025;-80
2023/08/10 05:57:35;;;;;;;4.73;2.37;;;;;;;20.66;100.00;96667.88;5072142;28;20027;-80
2023/08/10 06:00:00;;;;;;;3.27;1.90;;;;;;;20.75;100.00;96670.31;5071870;28;20428;-80
2023/08/10 06:02:27;;;;;;;4.63;2.33;;;;;;;20.89;100.00;96675.41;5053987;28;20081;-80
2023/08/10 06:04:52;;;;;;;5.40;2.33;;;;;;;21.07;100.00;96669.31;5054188;28;20021;-80
2023/08/10 06:07:18;;;;;;;4.77;2.23;;;;;;;21.08;100.00;96670.13;5071198;28;20402;-80
2023/08/10 06:09:44;;;;;;;6.07;2.53;;;;;;;21.76;100.00;96669.47;5051067;28;20029;-80
2023/08/10 06:12:10;;;;;;;5.90;2.20;;;;;;;22.76;100.00;96656.69;5051845;28;20054;-80
2023/08/10 06:14:37;;;;;;;2.87;1.80;;;;;;;22.45;100.00;96665.72;5062621;28;20050;-80
2023/08/10 06:17:04;;;;;;;4.03;1.90;;;;;;;21.69;100.00;96672.19;5062519;28;20921;-80
2023/08/10 06:19:31;;;;;;;4.63;1.93;;;;;;;22.16;100.00;96667.25;5070624;28;20025;-80
2023/08/10 06:21:57;;;;;;;4.43;1.80;;;;;;;22.47;100.00;96669.00;5054140;28;20031;-80
2023/08/10 06:24:22;;;;;;;4.95;2.00;;;;;;;22.74;100.00;96664.16;5070497;28;20028;-80
2023/08/10 06:26:48;;;;;;;4.28;2.03;;;;;;;22.68;100.00;96664.22;5070502;28;20024;-80
2023/08/10 06:29:15;;;;;;;5.57;2.40;;;;;;;22.62;100.00;96671.31;5066360;28;20047;-79
2023/08/10 06:31:40;;;;;;;4.05;1.60;;;;;;;23.24;100.00;96669.28;5053558;28;20047;-80
2023/08/10 06:34:06;;;;;;;4.60;1.73;;;;;;;23.21;100.00;96679.66;5053788;28;20028;-80
2023/08/10 06:36:35;;;;;;;3.58;1.88;;;;;;;23.70;100.00;96677.69;5053054;28;20027;-80
2023/08/10 06:39:01;;;;;;;4.45;1.80;;;;;;;24.36;100.00;96675.72;5052755;28;20071;-80
2023/08/10 06:41:26;;;;;;;4.80;2.08;;;;;;;25.05;100.00;96675.78;5063193;28;20152;-81
2023/08/10 06:43:52;;;;;;;3.58;1.95;;;;;;;25.62;100.00;96687.38;5087581;28;20025;-80
2023/08/10 06:46:18;;;;;;;3.25;1.80;;;;;;;25.42;100.00;96683.47;5089387;28;20032;-81
2023/08/10 06:48:43;;;;;;;5.43;1.75;;;;;;;25.79;99.68;96683.88;5090112;28;20012;-80
2023/08/10 06:51:09;;;;;;;4.57;2.05;;;;;;;26.01;100.00;96687.47;5072168;28;20036;-80
2023/08/10 06:53:34;;;;;;;2.60;1.60;;;;;;;25.93;100.00;96695.97;5045470;28;20027;-80
2023/08/10 06:56:00;;;;;;;3.03;1.40;;;;;;;26.36;94.60;96689.06;5054641;28;20021;-80
2023/08/10 06:58:26;;;;;;;4.85;1.50;;;;;;;27.68;89.12;96683.59;5074454;28;20023;-80
2023/08/10 07:00:51;;;;;;;2.83;1.20;;;;;;;27.65;79.06;96690.31;5067037;28;20745;-80
2023/08/10 07:03:21;;;;;;;2.20;1.23;;;;;;;27.58;76.02;96687.00;5056014;28;20525;-80
2023/08/10 07:05:47;;;;;;;4.53;1.63;;;;;;;27.42;78.26;96686.03;5057741;28;20069;-80
2023/08/10 07:08:12;;;;;;;3.65;1.55;;;;;;;27.89;77.59;96682.69;5073740;28;20025;-79
2023/08/10 07:10:38;;;;;;;3.22;1.40;;;;;;;28.70;65.41;96692.41;5071616;28;20028;-80
2023/08/10 07:13:04;;;;;;;2.38;1.25;;;;;;;27.98;68.96;96690.34;5071390;28;20020;-81
2023/08/10 07:15:50;;;;;;;6.53;1.13;;;;;;;28.71;65.40;96685.13;5049708;28;20032;-80
2023/08/10 07:18:16;;;;;;;2.47;1.15;;;;;;;27.62;67.38;96700.81;5057195;28;20107;-81
2023/08/10 07:20:41;;;;;;;2.38;1.02;;;;;;;26.94;60.20;96694.94;5069687;28;20044;-80
2023/08/10 07:23:07;;;;;;;5.47;1.20;;;;;;;28.36;65.89;96694.66;5063930;28;20017;-80
2023/08/10 07:25:32;;;;;;;4.82;1.52;;;;;;;28.56;65.67;96691.28;5053489;28;20540;-79
2023/08/10 07:27:58;;;;;;;6.15;2.90;;;;;;;29.37;56.58;96694.28;5071347;28;20017;-80
2023/08/10 07:30:23;;;;;;;2.38;1.05;;;;;;;27.87;60.57;96702.97;5080172;28;20032;-80
2023/08/10 07:32:50;;;;;;;2.50;1.35;;;;;;;28.20;62.70;96699.13;5058008;28;20044;-80
2023/08/10 07:35:16;;;;;;;4.95;1.58;;;;;;;28.14;59.40;96692.09;5074485;28;20106;-80
2023/08/10 07:37:42;;;;;;;3.53;1.30;;;;;;;28.68;56.00;96689.19;5057862;28;20624;-81
2023/08/10 07:40:10;;;;;;;3.28;1.33;;;;;;;29.00;53.04;96682.81;5057279;28;20021;-80
2023/08/10 07:42:35;;;;;;;1.52;0.90;;;;;;;28.87;54.44;96679.53;5073403;28;20523;-80
2023/08/10 07:45:01;;;;;;;5.38;1.38;;;;;;;29.78;52.46;96688.16;5057023;28;20035;-80
2023/08/10 07:47:26;;;;;;;4.78;1.80;;;;;;;29.22;55.61;96690.75;5072437;28;20024;-80
2023/08/10 07:49:52;;;;;;;2.22;1.13;;;;;;;29.66;48.70;96688.41;5058010;28;20023;-81
2023/08/10 07:52:17;;;;;;;4.00;1.33;;;;;;;30.60;47.21;96693.50;5064394;28;20048;-80
2023/08/10 07:54:44;;;;;;;3.40;1.25;;;;;;;29.82;46.98;96700.09;5050906;28;20021;-81
2023/08/10 07:57:09;;;;;;;2.80;1.20;;;;;;;30.79;45.65;96707.31;5071900;28;20079;-81
2023/08/10 07:59:35;;;;;;;2.58;1.02;;;;;;;30.76;45.68;96714.09;5056349;28;20017;-81
2023/08/10 08:02:00;;;;;;;2.45;1.15;;;;;;;29.15;49.38;96718.09;5072880;28;20470;-81
2023/08/10 08:04:26;;;;;;;2.63;1.10;;;;;;;29.42;48.19;96717.06;5064689;28;20433;-81
2023/08/10 08:06:52;;;;;;;4.05;1.30;;;;;;;28.78;50.47;96716.28;5053337;28;20028;-81
2023/08/10 08:09:17;;;;;;;1.00;0.80;;;;;;;30.30;46.25;96714.97;5073028;28;20032;-80
2023/08/10 08:11:43;;;;;;;2.42;1.38;;;;;;;30.52;42.81;96714.69;5073705;28;20024;-80
2023/08/10 08:14:08;;;;;;;2.88;1.40;;;;;;;30.86;42.52;96724.13;5047873;28;20021;-81
2023/08/10 08:16:34;;;;;;;2.83;1.27;;;;;;;30.84;42.34;96723.56;5072486;28;20684;-81
2023/08/10 08:19:00;;;;;;;3.55;1.20;;;;;;;30.14;42.82;96724.19;5064708;28;20093;-80
2023/08/10 08:21:27;;;;;;;3.20;1.27;;;;;;;29.50;44.69;96722.78;5072746;28;20535;-80
2023/08/10 08:23:54;;;;;;;4.85;1.30;;;;;;;30.12;43.63;96720.94;5072526;28;20067;-81
2023/08/10 08:26:23;;;;;;;2.67;1.27;;;;;;;31.03;42.06;96716.44;5059107;28;20063;-80
2023/08/10 08:28:50;;;;;;;2.80;1.20;;;;;;;30.18;41.50;96711.75;5072806;28;20023;-80
2023/08/10 08:31:16;;;;;;;2.85;1.30;;;;;;;30.64;42.23;96710.84;5060471;28;20025;-80
2023/08/10 08:33:42;;;;;;;4.07;1.30;;;;;;;30.15;43.05;96706.84;5055544;28;20394;-80
2023/08/10 08:36:08;;;;;;;4.95;2.10;;;;;;;31.21;42.11;96704.94;5063798;28;20064;-80
2023/08/10 08:38:34;;;;;;;3.05;1.50;;;;;;;31.43;42.79;96706.47;5071325;28;20029;-80
2023/08/10 08:41:08;;;;;;;2.58;1.27;;;;;;;31.30;41.68;96705.16;5072277;28;20529;-80
2023/08/10 08:43:35;;;;;;;4.47;1.45;;;;;;;30.52;42.06;96713.88;5070502;28;20027;-80
2023/08/10 08:46:01;;;;;;;2.72;1.30;;;;;;;30.55;42.24;96707.91;5055431;28;20499;-80
2023/08/10 08:48:27;;;;;;;1.92;1.00;;;;;;;30.64;40.19;96708.94;5072165;28;20091;-80
2023/08/10 08:50:54;;;;;;;4.18;1.40;;;;;;;30.56;41.18;96708.72;5071755;28;20028;-80
2023/08/10 08:53:21;;;;;;;3.53;1.45;;;;;;;30.11;41.89;96713.88;5071066;28;20020;-81
2023/08/10 08:55:46;;;;;;;2.33;1.20;;;;;;;30.95;40.82;96706.13;5071948;28;20017;-81
2023/08/10 08:58:16;;;;;;;1.58;1.10;;;;;;;31.53;38.92;96706.41;5071618;28;20138;-81
2023/08/10 09:00:52;;;;;;;3.33;1.30;;;;;;;32.72;37.32;96698.88;5055058;28;20016;-81
2023/08/10 09:03:20;;;;;;;1.67;1.20;;;;;;;31.96;37.36;96698.53;5068552;28;20039;-81
2023/08/10 09:05:47;;;;;;;5.18;1.42;;;;;;;32.23;36.34;96695.28;5066432;28;20095;-80
2023/08/10 09:08:18;;;;;;;2.85;1.40;;;;;;;31.81;35.87;96693.16;5071669;28;20024;-81
2023/08/10 09:10:47;;;;;;;4.25;1.33;;;;;;;32.12;36.26;96691.00;5073253;28;20113;-81
2023/08/10 09:13:19;;;;;;;3.63;1.38;;;;;;;32.32;34.94;96685.38;5054714;28;20074;-81
2023/08/10 09:15:45;;;;;;;1.83;1.02;;;;;;;33.44;33.43;96687.91;5054663;28;20078;-81
2023/08/10 09:18:10;;;;;;;2.30;1.08;;;;;;;34.35;32.81;96684.81;5052807;28;20071;-81
2023/08/10 09:20:37;;;;;;;4.07;1.23;;;;;;;33.95;34.76;96687.91;5054468;28;20078;-80
2023/08/10 09:23:03;;;;;;;4.95;1.50;;;;;;;33.61;35.85;96681.94;5062232;28;20017;-81
2023/08/10 09:25:37;;;;;;;2.78;1.55;;;;;;;33.67;34.45;96684.28;5064963;28;20070;-81
2023/08/10 09:28:09;;;;;;;2.38;1.20;;;;;;;34.35;34.75;96685.63;5059891;28;20017;-80
2023/08/10 09:30:34;;;;;;;3.97;1.30;;;;;;;33.66;33.28;96679.94;5065833;28;20027;-81
2023/08/10 09:33:00;;;;;;;2.53;1.40;;;;;;;34.17;31.46;96678.28;5043785;28;20111;-81
2023/08/10 09:35:29;;;;;;;3.05;1.33;;;;;;;34.99;32.07;96666.63;5054250;28;20032;-80
2023/08/10 09:38:01;;;;;;;3.70;1.40;;;;;;;34.15;32.28;96675.06;5054416;28;20383;-81
2023/08/10 09:40:26;;;;;;;1.63;1.00;;;;;;;32.52;33.62;96680.84;5062393;28;20086;-81
2023/08/10 09:42:53;;;;;;;2.53;1.27;;;;;;;33.52;33.96;96673.59;5066151;28;20482;-80
2023/08/10 09:45:19;;;;;;;2.75;1.50;;;;;;;35.79;32.95;96670.59;5071981;28;20505;-80
2023/08/10 09:47:45;;;;;;;1.75;1.33;;;;;;;34.54;32.05;96674.63;5053936;28;20020;-80
2023/08/10 09:50:15;;;;;;;2.22;1.30;;;;;;;33.63;34.09;96672.34;5052703;28;20032;-81
2023/08/10 09:52:42;;;;;;;2.22;1.30;;;;;;;33.92;34.27;96672.16;5051747;28;20202;-81
2023/08/10 09:55:10;;;;;;;2.60;1.60;;;;;;;35.16;32.08;96675.03;5058944;28;20086;-81
2023/08/10 09:57:40;;;;;;;3.03;1.17;;;;;;;35.70;31.74;96669.72;5045041;28;20040;-80
2023/08/10 10:00:13;;;;;;;4.38;1.80;;;;;;;36.88;31.46;96669.41;5058532;28;20031;-81
2023/08/10 10:02:40;;;;;;;2.33;1.40;;;;;;;35.41;31.90;96667.34;5046680;28;20031;-81
2023/08/10 10:05:06;;;;;;;2.97;1.58;;;;;;;35.29;31.25;96670.66;5070929;28;20028;-81
2023/08/10 10:07:32;;;;;;;3.67;1.40;;;;;;;34.93;32.09;96667.84;5054201;28;20034;-81
2023/08/10 10:09:59;;;;;;;2.08;1.33;;;;;;;34.58;32.37;96666.66;5064841;28;20075;-81
2023/08/10 10:12:27;;;;;;;2.33;1.30;;;;;;;33.71;31.43;96670.88;5053781;28;20085;-81
2023/08/10 10:14:53;;;;;;;3.10;1.30;;;;;;;33.56;33.98;96664.53;5067305;28;20024;-80
2023/08/10 10:17:20;;;;;;;2.13;1.33;;;;;;;33.74;33.44;96662.09;5057074;28;20033;-80
2023/08/10 10:19:49;;;;;;;3.20;1.60;;;;;;;32.83;35.21;96662.22;5069841;28;20020;-81
2023/08/10 10:22:18;;;;;;;2.63;1.52;;;;;;;33.19;35.26;96659.88;5051567;28;20094;-80
2023/08/10 10:24:44;;;;;;;3.35;1.60;;;;;;;34.24;32.23;96665.09;5064237;28;20042;-80
2023/08/10 10:27:14;;;;;;;3.55;1.60;;;;;;;33.76;35.13;96657.94;5071010;28;20021;-80
2023/08/10 10:29:49;;;;;;;7.45;1.88;;;;;;;33.09;34.88;96660.00;5057453;28;20033;-80
2023/08/10 10:32:16;;;;;;;2.83;1.50;;;;;;;34.25;34.01;96658.50;5055732;28;20025;-81
2023/08/10 10:34:42;;;;;;;2.92;1.75;;;;;;;34.31;32.84;96651.84;5074041;28;20497;-81
2023/08/10 10:37:14;;;;;;;2.50;1.50;;;;;;;33.58;34.54;96656.06;5071245;28;20036;-81
2023/08/10 10:39:43;;;;;;;2.33;1.40;;;;;;;33.45;35.13;96652.13;5065003;28;20028;-81
2023/08/10 10:42:15;;;;;;;3.25;1.50;;;;;;;33.76;35.24;96651.69;5063515;28;20120;-81
2023/08/10 10:45:03;;;;;;;3.88;1.92;;;;;;;33.98;34.59;96649.13;5052262;28;20013;-80
2023/08/10 10:47:39;;;;;;;2.95;1.75;;;;;;;33.12;33.88;96637.63;5070068;28;20567;-81
2023/08/10 10:50:14;;;;;;;2.17;1.52;;;;;;;34.14;33.01;96641.50;5073350;28;20446;-81
2023/08/10 10:52:40;;;;;;;2.60;1.42;;;;;;;35.02;33.17;96638.72;5054191;28;20453;-81
2023/08/10 10:55:09;;;;;;;2.25;1.45;;;;;;;33.92;32.25;96644.84;5055017;28;20107;-81
2023/08/10 10:57:38;;;;;;;6.57;1.88;;;;;;;35.59;33.26;96630.06;5057421;28;20020;-81
2023/08/10 11:00:05;;;;;;;3.55;1.67;;;;;;;33.47;34.28;96636.31;5053893;28;20550;-81
2023/08/10 11:02:33;;;;;;;3.10;1.50;;;;;;;32.84;35.65;96636.63;5051683;28;20040;-81
2023/08/10 11:04:59;;;;;;;2.88;1.60;;;;;;;33.79;34.41;96635.53;5074205;28;20028;-81
2023/08/10 11:07:24;;;;;;;2.25;1.45;;;;;;;34.14;35.23;96632.50;5072189;28;20016;-82
2023/08/10 11:09:51;;;;;;;2.47;1.50;;;;;;;33.97;34.09;96639.31;5074187;28;20095;-81
2023/08/10 11:12:17;;;;;;;4.72;1.65;;;;;;;34.67;33.89;96624.66;5073876;28;20104;-81
2023/08/10 11:14:43;;;;;;;4.63;1.75;;;;;;;34.31;32.75;96630.00;5073891;28;20062;-81
2023/08/10 11:17:09;;;;;;;2.47;1.60;;;;;;;33.77;35.44;96626.00;5070318;28;20431;-82
2023/08/10 11:19:34;;;;;;;4.72;1.75;;;;;;;34.91;33.47;96618.97;5059996;28;20055;-81
2023/08/10 11:22:00;;;;;;;2.30;1.40;;;;;;;33.36;33.37;96625.84;5066124;28;20049;-81
2023/08/10 11:24:30;;;;;;;2.83;1.65;;;;;;;34.16;33.31;96619.38;5068703;28;20020;-81
2023/08/10 11:26:57;;;;;;;2.92;1.63;;;;;;;34.28;35.11;96610.69;5063120;28;20486;-81
2023/08/10 11:29:22;;;;;;;3.08;1.65;;;;;;;34.58;33.64;96614.78;5075102;28;20016;-81